Decoded Metar for PFKT ( in ) (IATA:) | Meteo·Mobile Aviation Weather
aviador You're here:

PFKT Decoded Metar

in
Report Time2019-07-24 04:07:00
UTC Time2019-07-24 04:17:33
Flight Rules ifr IFR
Wind200° at 17 kt
W.Decomp.*RWY 22: 16.0 kt HW 5.8 kt LCW
RWY 12: 3.0 kt HW 16.7 kt RCW
RWY 11: 17.0 kt RCW
Visibility9999 m
Phenomena:N/A
Clouds:Broken 005 Hf
Overcast 012 Hf
Expected CloudBase > 400 ft AGL from Temp-Dew spread
Ceiling500 ft
Temp14°C
Dew Point13°C (94% RH)
AAT8.8°C
QNH1009 hPa
Raw Report
PFKT 240407Z AUTO 20017KT 10SM BKN005 OVC012 14/13 A2980 RMK AO2
WSHFT 0353 CIG 004V008=

Extra information for PFKT:More info

Social comments